Data for 02/10/2014

Time Sea-Level Adjusted Pressure Absolute Pressure Temperature Relative Humidity Dew Point   
(mb) (inHg) (mb) (inHg) (C) (F) (%) (C) (F)
00:05 1016 30 845 24.95 -13.7 7.4 75 -17.2 1
00:10 1016 30 845 24.95 -13.7 7.4 75 -17.2 1
00:15 1016 30 845 24.95 -13.8 7.2 75 -17.3 0.8
00:20 1016 30 845 24.95 -13.8 7.2 75 -17.3 0.8
00:25 1016 30 845 24.95 -13.8 7.2 74 -17.5 0.6
00:30 1016 30 845 24.95 -13.9 7 75 -17.4 0.7
00:35 1016 30 845 24.95 -13.8 7.2 75 -17.3 0.9
00:40 1016 30 845 24.95 -13.8 7.2 75 -17.3 0.9
00:45 1016 30 845 24.95 -13.8 7.1 76 -17.2 1
00:50 1016 30 845 24.95 -13.7 7.4 74 -17.3 0.9
00:55 1016 30 845 24.95 -13.7 7.4 75 -17.2 1
01:00 1016 30 845 24.95 -13.8 7.1 75 -17.4 0.7
01:05 1016 30 845 24.95 -14 6.8 75 -17.5 0.5
01:10 1016 30 845 24.95 -14.1 6.6 76 -17.5 0.6
01:15 1016 30 845 24.95 -14.1 6.6 76 -17.5 0.5
01:20 1016 30 845 24.95 -14 6.8 76 -17.4 0.7
01:25 1016 30 845 24.95 -13.9 6.9 76 -17.3 0.9
01:30 1016 30 845 24.95 -13.9 7 77 -17.1 1.2
01:35 1016 30 845 24.95 -13.9 7 77 -17.1 1.2
01:40 1016 30 845 24.95 -13.8 7.1 77 -17 1.4
01:45 1016 30 845 24.95 -13.8 7.2 77 -17 1.4
01:50 1016 30 845 24.95 -13.7 7.4 77 -16.9 1.6
01:55 1016 30 845 24.95 -13.8 7.2 77 -16.9 1.5
02:00 1016 30 845 24.95 -13.8 7.2 76 -17.1 1.2
02:05 1016 30 845 24.95 -13.8 7.2 75 -17.3 0.8
02:10 1016 30 845 24.95 -14 6.7 77 -17.3 0.9
02:15 1016 30 845 24.95 -14.2 6.4 77 -17.4 0.6
02:20 1016 30 845 24.95 -14.2 6.5 78 -17.3 0.9
02:25 1016 30 845 24.95 -14.2 6.5 77 -17.3 0.8
02:30 1016 30 845 24.95 -14.1 6.5 78 -17.2 1
02:35 1016 30 845 24.95 -14 6.8 77 -17.2 1.1
02:40 1016 30 845 24.95 -14 6.8 77 -17.2 1.1
02:45 1016 30 846 24.98 -13.9 7.1 75 -17.4 0.6
02:50 1017 30.03 846 24.98 -13.7 7.3 75 -17.3 0.8
02:55 1017 30.03 846 24.98 -13.6 7.5 74 -17.2 1
03:00 1017 30.03 846 24.98 -13.6 7.5 75 -17.2 1.1
03:05 1017 30.03 846 24.98 -13.7 7.3 76 -17.1 1.3
03:10 1017 30.03 846 24.98 -13.8 7.2 76 -17.1 1.2
03:15 1017 30.03 846 24.98 -13.9 7 78 -17 1.4
03:20 1017 30.03 846 24.98 -13.6 7.5 77 -16.8 1.8
03:25 1017 30.03 846 24.98 -13.4 7.8 76 -16.8 1.7
03:30 1017 30.03 846 24.98 -13.4 7.9 76 -16.8 1.8
03:35 1017 30.03 846 24.98 -13.4 7.8 76 -16.8 1.8
03:40 1016 30 846 24.98 -13.5 7.7 77 -16.7 2
03:45 1016 30 846 24.98 -13.6 7.5 78 -16.7 2
03:50 1016 30 845 24.95 -13.7 7.4 80 -16.4 2.4
03:55 1016 30 845 24.95 -13.6 7.5 80 -16.3 2.6
04:00 1016 30 845 24.95 -13.6 7.5 81 -16.2 2.9
04:05 1015 29.97 845 24.95 -13.4 7.8 81 -16.1 3.1
04:10 1015 29.97 844 24.92 -13.2 8.3 79 -16 3.2
04:15 1016 30 845 24.95 -13 8.5 79 -15.9 3.4
04:20 1016 30 845 24.95 -12.9 8.7 76 -16.2 2.8
04:25 1016 30 845 24.95 -13.1 8.5 75 -16.6 2.1
04:30 1016 30 846 24.98 -13 8.7 76 -16.4 2.5
04:35 1016 30 845 24.95 -12.7 9.1 76 -16.1 3
04:40 1016 30 845 24.95 -13 8.7 76 -16.3 2.7
04:45 1016 30 845 24.95 -13.6 7.5 78 -16.6 2
04:50 1017 30.03 846 24.98 -13.8 7.2 78 -16.9 1.6
04:55 1017 30.03 846 24.98 -14.1 6.7 81 -16.6 2.1
05:00 1017 30.03 846 24.98 -14 6.8 80 -16.7 2
05:05 1017 30.03 846 24.98 -14 6.9 81 -16.6 2.1
05:10 1017 30.03 846 24.98 -13.9 7 81 -16.5 2.3
05:15 1017 30.03 846 24.98 -13.8 7.2 80 -16.6 2.2
05:20 1017 30.03 846 24.98 -13.8 7.2 80 -16.6 2.2
05:25 1017 30.03 846 24.98 -13.6 7.5 80 -16.4 2.5
05:30 1017 30.03 846 24.98 -13.3 8 79 -16.3 2.7
05:35 1017 30.03 846 24.98 -13.3 8.1 79 -16.2 2.8
05:40 1017 30.03 846 24.98 -13.3 8.1 79 -16.2 2.9
05:45 1017 30.03 846 24.98 -13.2 8.2 78 -16.2 2.8
05:50 1017 30.03 846 24.98 -13.3 8 80 -16.1 3
05:55 1017 30.03 846 24.98 -13.3 8.1 80 -16.1 3.1
06:00 1017 30.03 846 24.98 -13.3 8.1 80 -16.1 3.1
06:05 1017 30.03 846 24.98 -13.3 8.1 80 -16.1 3.1
06:10 1017 30.03 846 24.98 -13.2 8.2 80 -15.9 3.3
06:15 1017 30.03 846 24.98 -13.1 8.5 80 -15.8 3.5
06:20 1016 30 846 24.98 -13 8.7 80 -15.7 3.7
06:25 1016 30 846 24.98 -12.8 9 79 -15.6 3.8
06:30 1016 30 846 24.98 -12.7 9.2 79 -15.6 3.9
06:35 1017 30.03 846 24.98 -12.6 9.3 78 -15.7 3.7
06:40 1017 30.03 846 24.98 -12.6 9.3 78 -15.7 3.7
06:45 1017 30.03 846 24.98 -12.6 9.4 78 -15.6 3.8
06:50 1016 30 846 24.98 -12.5 9.5 78 -15.6 4
06:55 1016 30 846 24.98 -12.4 9.7 78 -15.4 4.3
07:00 1016 30 846 24.98 -12.2 10.1 78 -15.3 4.4
07:05 1017 30.03 846 24.98 -12.1 10.1 77 -15.4 4.2
07:10 1017 30.03 846 24.98 -12 10.5 77 -15.3 4.5
07:15 1017 30.03 846 24.98 -11.8 10.9 77 -15 5
07:20 1017 30.03 846 24.98 -11.6 11.2 76 -14.9 5.1
07:25 1017 30.03 846 24.98 -11.6 11.2 77 -14.8 5.4
07:30 1017 30.03 846 24.98 -11.8 10.8 78 -14.9 5.1
07:35 1017 30.03 846 24.98 -12.1 10.2 79 -15.1 4.9
07:40 1017 30.03 846 24.98 -12.3 10 79 -15.2 4.6
07:45 1017 30.03 846 24.98 -12.3 9.8 79 -15.3 4.4
07:50 1017 30.03 846 24.98 -12.4 9.6 80 -15.3 4.5
07:55 1017 30.03 846 24.98 -12.3 9.9 79 -15.3 4.5
08:00 1017 30.03 846 24.98 -12.3 9.9 79 -15.2 4.6
08:05 1017 30.03 846 24.98 -12.5 9.5 80 -15.2 4.6
08:10 1017 30.03 846 24.98 -12.7 9.2 81 -15.2 4.6
08:15 1017 30.03 846 24.98 -12.8 8.9 82 -15.3 4.5
08:20 1017 30.03 846 24.98 -12.9 8.8 82 -15.3 4.4
08:25 1017 30.03 846 24.98 -12.9 8.9 81 -15.5 4.1
08:30 1017 30.03 846 24.98 -12.9 8.9 80 -15.6 3.9
08:35 1017 30.03 846 24.98 -12.7 9.2 79 -15.6 4
08:40 1017 30.03 846 24.98 -12.7 9.1 79 -15.6 4
08:45 1017 30.03 846 24.98 -12.5 9.4 78 -15.7 3.8
08:50 1017 30.03 846 24.98 -12.4 9.6 80 -15.1 4.7
08:55 1017 30.03 846 24.98 -12.4 9.6 82 -14.9 5.2
09:00 1017 30.03 846 24.98 -12.2 10.1 81 -14.8 5.4
09:05 1017 30.03 846 24.98 -11.9 10.6 80 -14.7 5.6
09:10 1017 30.03 846 24.98 -11.7 10.9 80 -14.6 5.8
09:15 1017 30.03 846 24.98 -11.5 11.3 80 -14.3 6.2
09:20 1017 30.03 847 25.01 -11.2 11.9 78 -14.3 6.2
09:25 1017 30.03 847 25.01 -11.2 11.8 78 -14.3 6.3
09:30 1018 30.06 847 25.01 -11.4 11.5 80 -14.2 6.4
09:35 1018 30.06 847 25.01 -11 12.2 77 -14.2 6.4
09:40 1017 30.03 847 25.01 -10.8 12.6 77 -14.1 6.6
09:45 1017 30.03 847 25.01 -10.7 12.8 76 -14.2 6.5
09:50 1018 30.06 847 25.01 -10.5 13 76 -14 6.8
09:55 1018 30.06 847 25.01 -10.2 13.7 75 -13.9 7
10:00 1018 30.06 847 25.01 -10 14.1 75 -13.6 7.5
10:05 1018 30.06 847 25.01 -9.9 14.1 73 -13.9 7.1
10:10 1018 30.06 847 25.01 -10.2 13.7 75 -13.8 7.1
10:15 1018 30.06 847 25.01 -9.9 14.2 74 -13.7 7.4
10:20 1018 30.06 847 25.01 -9.9 14.1 75 -13.5 7.7
10:25 1018 30.06 847 25.01 -9.9 14.3 75 -13.4 7.8
10:30 1018 30.06 847 25.01 -9.7 14.6 74 -13.5 7.8
10:35 1018 30.06 847 25.01 -9.8 14.3 76 -13.2 8.2
10:40 1018 30.06 847 25.01 -9.6 14.8 76 -13 8.6
10:45 1018 30.06 848 25.04 -9.3 15.3 75 -12.9 8.9
10:50 1018 30.06 848 25.04 -8.7 16.3 73 -12.7 9.1
10:55 1018 30.06 847 25.01 -8.5 16.6 73 -12.5 9.5
11:00 1018 30.06 847 25.01 -8.3 17.2 71 -12.6 9.4
11:05 1018 30.06 848 25.04 -8.3 17 71 -12.7 9.1
11:10 1018 30.06 848 25.04 -9.1 15.6 73 -13.2 8.3
11:15 1018 30.06 848 25.04 -9.2 15.5 72 -13.4 7.8
11:20 1018 30.06 848 25.04 -9.2 15.5 72 -13.3 8.1
11:25 1018 30.06 848 25.04 -9 15.9 73 -13 8.6
11:30 1018 30.06 848 25.04 -8.6 16.4 70 -13.1 8.4
11:35 1018 30.06 848 25.04 -8 17.7 69 -12.7 9.2
11:40 1019 30.09 848 25.04 -7.4 18.7 67 -12.6 9.4
11:45 1019 30.09 848 25.04 -7.5 18.5 69 -12.2 10.1
11:50 1019 30.09 848 25.04 -7.6 18.3 70 -12.3 9.9
11:55 1019 30.09 848 25.04 -7.1 19.2 68 -12 10.4
12:00 1019 30.09 848 25.04 -6.9 19.7 67 -11.9 10.5
12:05 1019 30.09 848 25.04 -6.5 20.4 67 -11.7 11
12:10 1019 30.09 848 25.04 -5.9 21.4 65 -11.5 11.3
12:15 1019 30.09 848 25.04 -5.4 22.3 63 -11.3 11.7
12:20 1019 30.09 848 25.04 -5 22.9 62 -11.3 11.7
12:25 1019 30.09 848 25.04 -4.8 23.3 61 -11.2 11.8
12:30 1019 30.09 848 25.04 -4.3 24.3 59 -11.1 12
12:35 1019 30.09 848 25.04 -4.1 24.6 59 -11 12.2
12:40 1019 30.09 848 25.04 -4.5 23.9 61 -10.9 12.4
12:45 1019 30.09 848 25.04 -4.2 24.4 60 -10.9 12.3
12:50 1019 30.09 848 25.04 -4 24.9 59 -10.8 12.6
12:55 1019 30.09 848 25.04 -3.7 25.4 58 -10.8 12.6
13:00 1019 30.09 848 25.04 -3.7 25.4 56 -11.1 12
13:05 1019 30.09 848 25.04 -3.5 25.7 58 -10.6 12.8
13:10 1019 30.09 848 25.04 -3.3 26.1 57 -10.7 12.7
13:15 1019 30.09 848 25.04 -3.8 25.3 60 -10.5 13.1
13:20 1019 30.09 848 25.04 -3.3 26.1 58 -10.4 13.2
13:25 1019 30.09 848 25.04 -3.6 25.6 59 -10.4 13.2
13:30 1019 30.09 848 25.04 -4.2 24.5 62 -10.4 13.3
13:35 1019 30.09 848 25.04 -3.4 26 59 -10.2 13.7
13:40 1019 30.09 848 25.04 -2.6 27.4 57 -10.1 13.9
13:45 1019 30.09 848 25.04 -2.2 28 56 -10 14.1
13:50 1019 30.09 848 25.04 -2 28.4 55 -9.9 14.3
13:55 1019 30.09 848 25.04 -1.7 29 54 -9.8 14.4
14:00 1019 30.09 848 25.04 -1.8 28.7 55 -9.6 14.7
14:05 1019 30.09 848 25.04 -1.1 29.9 51 -10.1 13.8
14:10 1019 30.09 848 25.04 -0.2 31.7 50 -9.5 14.9
14:15 1019 30.09 848 25.04 -0.5 31 51 -9.4 15.1
14:20 1019 30.09 848 25.04 -0.8 30.5 52 -9.5 15
14:25 1019 30.09 848 25.04 -0.4 31.3 53 -8.7 16.3
14:30 1019 30.09 848 25.04 -0.5 31.1 56 -8.3 17
14:35 1019 30.09 848 25.04 0 32 51 -9.1 15.7
14:40 1019 30.09 848 25.04 0.7 33.3 50 -8.5 16.6
14:45 1019 30.09 848 25.04 1.1 34 48 -8.7 16.4
14:50 1019 30.09 848 25.04 1.2 34.1 46 -9.1 15.6
14:55 1019 30.09 848 25.04 2.1 35.8 44 -8.9 15.9
15:00 1019 30.09 848 25.04 2.2 35.9 43 -9 15.7
15:05 1018 30.06 848 25.04 2.8 37 43 -8.6 16.5
15:10 1018 30.06 848 25.04 2.8 37.1 43 -8.6 16.5
15:15 1018 30.06 848 25.04 2.1 35.8 45 -8.8 16.2
15:20 1018 30.06 847 25.01 2.1 35.8 43 -9.3 15.3
15:25 1018 30.06 847 25.01 2.8 37 42 -8.9 15.9
15:30 1018 30.06 847 25.01 3.1 37.6 41 -8.8 16.1
15:35 1018 30.06 847 25.01 3.4 38.2 39 -9.2 15.5
15:40 1018 30.06 847 25.01 3.6 38.4 40 -8.9 15.9
15:45 1018 30.06 847 25.01 4.1 39.3 38 -8.9 16
15:50 1018 30.06 847 25.01 4.2 39.5 39 -8.7 16.4
15:55 1018 30.06 847 25.01 3.6 38.5 41 -8.4 16.8
16:00 1018 30.06 847 25.01 3.2 37.7 42 -8.5 16.7
16:05 1018 30.06 847 25.01 2.8 37.1 42 -8.8 16.1
16:10 1018 30.06 847 25.01 1.4 34.4 48 -8.4 16.9
16:15 1018 30.06 847 25.01 1.5 34.6 45 -9.1 15.6
16:20 1018 30.06 847 25.01 1.8 35.3 47 -8.3 17.1
16:25 1018 30.06 847 25.01 1.5 34.8 49 -8 17.5
16:30 1018 30.06 847 25.01 1.5 34.7 49 -8.2 17.3
16:35 1018 30.06 847 25.01 1.3 34.4 49 -8.3 17.1
16:40 1018 30.06 847 25.01 1.6 34.9 49 -8.1 17.4
16:45 1018 30.06 847 25.01 1.4 34.5 51 -7.6 18.3
16:50 1018 30.06 847 25.01 0.5 32.9 54 -7.8 18
16:55 1018 30.06 847 25.01 0.3 32.5 53 -8.2 17.3
17:00 1018 30.06 847 25.01 0.5 32.9 54 -7.8 18
17:05 1018 30.06 847 25.01 0.4 32.7 53 -8.2 17.3
17:10 1018 30.06 847 25.01 0.5 32.8 53 -8 17.7
17:15 1018 30.06 847 25.01 0.5 32.8 55 -7.6 18.4
17:20 1018 30.06 847 25.01 0.4 32.8 53 -8.1 17.4
17:25 1018 30.06 847 25.01 0.2 32.4 55 -7.7 18.2
17:30 1018 30.06 847 25.01 -0.1 31.8 55 -8.1 17.5
17:35 1018 30.06 847 25.01 -0.1 31.7 56 -8 17.6
17:40 1018 30.06 847 25.01 0 32.1 55 -8 17.7
17:45 1018 30.06 847 25.01 -0 31.9 57 -7.5 18.5
17:50 1018 30.06 847 25.01 -0.2 31.7 57 -7.6 18.3
17:55 1018 30.06 847 25.01 -0.3 31.4 59 -7.5 18.5
18:00 1018 30.06 847 25.01 -0.4 31.2 60 -7.3 18.8
18:05 1018 30.06 847 25.01 -0.6 31 61 -7.1 19.2
18:10 1018 30.06 847 25.01 -0.5 31.1 63 -6.7 19.9
18:15 1018 30.06 847 25.01 -0.5 31.1 61 -7 19.3
18:20 1018 30.06 847 25.01 -0.4 31.2 63 -6.6 20.1
18:25 1018 30.06 847 25.01 -0.5 31.2 64 -6.5 20.3
18:30 1018 30.06 847 25.01 -0.5 31.1 64 -6.5 20.2
18:35 1018 30.06 847 25.01 -0.6 30.9 62 -7 19.4
18:40 1018 30.06 847 25.01 -0.7 30.8 60 -7.6 18.4
18:45 1018 30.06 847 25.01 -0.8 30.6 62 -7.2 19.1
18:50 1018 30.06 847 25.01 -1 30.3 64 -6.9 19.7
18:55 1018 30.06 847 25.01 -1.1 30 67 -6.5 20.4
19:00 1018 30.06 847 25.01 -1.3 29.6 67 -6.6 20.1
19:05 1018 30.06 847 25.01 -1.6 29.1 68 -6.8 19.8
19:10 1018 30.06 847 25.01 -1.6 29.1 68 -6.8 19.7
19:15 1018 30.06 847 25.01 -1.5 29.3 67 -6.9 19.6
19:20 1018 30.06 847 25.01 -1.5 29.4 63 -7.5 18.4
19:25 1018 30.06 847 25.01 -1.1 30 60 -7.9 17.8
19:30 1018 30.06 847 25.01 -0.5 31.1 59 -7.7 18.2
19:35 1018 30.06 847 25.01 -0.4 31.2 56 -8.1 17.4
19:40 1018 30.06 847 25.01 -0.2 31.6 58 -7.6 18.4
19:45 1018 30.06 847 25.01 -0.4 31.3 58 -7.6 18.3
19:50 1018 30.06 847 25.01 -0.5 31.1 59 -7.6 18.2
19:55 1017 30.03 847 25.01 -0.5 31.1 59 -7.6 18.4
20:00 1017 30.03 847 25.01 -0.4 31.2 57 -8 17.5
20:05 1017 30.03 846 24.98 -0.2 31.6 57 -7.8 17.9
20:10 1017 30.03 847 25.01 -0.3 31.5 56 -8 17.6
20:15 1017 30.03 847 25.01 -0.2 31.7 56 -7.9 17.8
20:20 1017 30.03 846 24.98 -0.1 31.8 56 -7.9 17.7
20:25 1017 30.03 846 24.98 -0.2 31.7 57 -7.7 18.1
20:30 1017 30.03 846 24.98 -0.2 31.7 55 -8.3 17.1
20:35 1017 30.03 846 24.98 0.2 32.3 53 -8.4 17
20:40 1017 30.03 846 24.98 0.5 32.9 52 -8.2 17.2
20:45 1017 30.03 846 24.98 0.8 33.5 50 -8.4 16.9
20:50 1017 30.03 846 24.98 0.9 33.6 49 -8.7 16.3
20:55 1017 30.03 846 24.98 1.5 34.8 48 -8.4 16.9
21:00 1017 30.03 846 24.98 1.6 34.9 50 -7.7 18.1
21:05 1017 30.03 846 24.98 1.4 34.5 52 -7.5 18.5
21:10 1017 30.03 846 24.98 1.2 34.1 50 -8 17.5
21:15 1017 30.03 846 24.98 1.1 33.9 51 -7.9 17.9
21:20 1017 30.03 846 24.98 0.7 33.3 55 -7.4 18.7
21:25 1017 30.03 846 24.98 0.1 32.2 59 -7 19.3
21:30 1017 30.03 846 24.98 -0.5 31.1 59 -7.5 18.5
21:35 1017 30.03 846 24.98 -0.6 31 57 -8 17.6
21:40 1017 30.03 846 24.98 0 32 55 -8.1 17.5
21:45 1017 30.03 846 24.98 0.5 32.9 57 -7.1 19.3
21:50 1016 30 846 24.98 -0.1 31.9 58 -7.4 18.7
21:55 1016 30 846 24.98 -0 31.9 55 -8 17.5
22:00 1017 30.03 846 24.98 0.3 32.6 56 -7.5 18.5
22:05 1017 30.03 846 24.98 0.4 32.7 56 -7.4 18.7
22:10 1017 30.03 846 24.98 0.4 32.7 55 -7.5 18.4
22:15 1017 30.03 846 24.98 0.4 32.7 55 -7.6 18.3
22:20 1017 30.03 846 24.98 1 33.9 49 -8.6 16.6
22:25 1017 30.03 846 24.98 1.9 35.4 47 -8.1 17.3
22:30 1017 30.03 846 24.98 2.1 35.7 47 -8.2 17.3
22:35 1016 30 846 24.98 2.3 36.1 46 -8.3 17.1
22:40 1016 30 846 24.98 2.4 36.4 46 -7.9 17.7
22:45 1016 30 846 24.98 2.5 36.5 44 -8.5 16.8
22:50 1016 30 846 24.98 2.5 36.5 47 -7.6 18.2
22:55 1016 30 846 24.98 2.3 36.1 46 -8.3 17.1
23:00 1016 30 845 24.95 2.5 36.5 45 -8.3 17.1
23:05 1016 30 845 24.95 2.5 36.4 47 -7.8 17.9
23:10 1016 30 845 24.95 2.4 36.3 44 -8.7 16.4
23:15 1016 30 845 24.95 2.9 37.2 42 -8.9 16
23:20 1016 30 845 24.95 3 37.4 43 -8.4 16.9
23:25 1016 30 845 24.95 2.6 36.8 44 -8.5 16.6
23:30 1016 30 845 24.95 2.7 36.8 43 -8.6 16.6
23:35 1016 30 845 24.95 2.9 37.2 42 -8.8 16.2
23:40 1016 30 845 24.95 3.2 37.7 43 -8.3 17.1
23:45 1016 30 845 24.95 3.1 37.6 42 -8.6 16.5
23:50 1016 30 845 24.95 3.1 37.7 42 -8.6 16.6
23:55 1016 30 845 24.95 3 37.4 43 -8.3 17.1
24:00 1016 30 845 24.95 2.7 36.9 46 -7.8 17.9